sensor_id;sensor_type;location;lat;lon;timestamp;temperature;humidity
65472;DHT22;52068;50.710;14.492;2022-12-18T00:02:21;26.48;29.98
65472;DHT22;52068;50.710;14.492;2022-12-18T00:04:47;26.16;30.32
65472;DHT22;52068;50.710;14.492;2022-12-18T00:07:12;25.80;30.87
65472;DHT22;52068;50.710;14.492;2022-12-18T00:09:38;25.46;31.36
65472;DHT22;52068;50.710;14.492;2022-12-18T00:12:03;25.12;31.82
65472;DHT22;52068;50.710;14.492;2022-12-18T00:14:29;24.83;32.22
65472;DHT22;52068;50.710;14.492;2022-12-18T00:16:54;24.56;32.83
65472;DHT22;52068;50.710;14.492;2022-12-18T00:19:19;24.26;33.26
65472;DHT22;52068;50.710;14.492;2022-12-18T00:21:45;23.99;33.67
65472;DHT22;52068;50.710;14.492;2022-12-18T00:24:11;23.84;34.07
65472;DHT22;52068;50.710;14.492;2022-12-18T00:26:38;23.75;34.15
65472;DHT22;52068;50.710;14.492;2022-12-18T00:29:10;23.81;34.18
65472;DHT22;52068;50.710;14.492;2022-12-18T00:31:37;23.96;34.03
65472;DHT22;52068;50.710;14.492;2022-12-18T00:34:03;24.20;33.58
65472;DHT22;52068;50.710;14.492;2022-12-18T00:36:32;24.44;33.31
65472;DHT22;52068;50.710;14.492;2022-12-18T00:38:59;24.67;32.91
65472;DHT22;52068;50.710;14.492;2022-12-18T00:41:25;24.84;32.78
65472;DHT22;52068;50.710;14.492;2022-12-18T00:44:12;24.96;32.64
65472;DHT22;52068;50.710;14.492;2022-12-18T00:46:37;25.05;32.63
65472;DHT22;52068;50.710;14.492;2022-12-18T00:49:03;25.11;32.38
65472;DHT22;52068;50.710;14.492;2022-12-18T00:51:29;25.22;32.27
65472;DHT22;52068;50.710;14.492;2022-12-18T00:53:54;25.25;32.15
65472;DHT22;52068;50.710;14.492;2022-12-18T00:56:20;25.39;31.98
65472;DHT22;52068;50.710;14.492;2022-12-18T00:58:48;25.43;31.80
65472;DHT22;52068;50.710;14.492;2022-12-18T01:01:14;25.39;31.84
65472;DHT22;52068;50.710;14.492;2022-12-18T01:03:39;25.28;31.80
65472;DHT22;52068;50.710;14.492;2022-12-18T01:06:06;25.15;32.11
65472;DHT22;52068;50.710;14.492;2022-12-18T01:08:32;25.01;32.34
65472;DHT22;52068;50.710;14.492;2022-12-18T01:10:58;24.75;32.53
65472;DHT22;52068;50.710;14.492;2022-12-18T01:13:23;24.53;32.91
65472;DHT22;52068;50.710;14.492;2022-12-18T01:15:49;24.26;33.28
65472;DHT22;52068;50.710;14.492;2022-12-18T01:18:15;24.02;33.55
65472;DHT22;52068;50.710;14.492;2022-12-18T01:20:40;23.84;33.84
65472;DHT22;52068;50.710;14.492;2022-12-18T01:23:06;23.66;34.19
65472;DHT22;52068;50.710;14.492;2022-12-18T01:25:31;23.50;34.34
65472;DHT22;52068;50.710;14.492;2022-12-18T01:27:56;23.33;34.79
65472;DHT22;52068;50.710;14.492;2022-12-18T01:30:22;23.21;34.76
65472;DHT22;52068;50.710;14.492;2022-12-18T01:32:47;23.06;34.94
65472;DHT22;52068;50.710;14.492;2022-12-18T01:35:13;22.97;35.04
65472;DHT22;52068;50.710;14.492;2022-12-18T01:37:38;23.00;35.26
65472;DHT22;52068;50.710;14.492;2022-12-18T01:40:04;23.07;35.17
65472;DHT22;52068;50.710;14.492;2022-12-18T01:42:29;23.30;34.96
65472;DHT22;52068;50.710;14.492;2022-12-18T01:47:44;23.95;34.02
65472;DHT22;52068;50.710;14.492;2022-12-18T01:50:18;24.27;33.57
65472;DHT22;52068;50.710;14.492;2022-12-18T01:52:56;24.59;33.17
65472;DHT22;52068;50.710;14.492;2022-12-18T01:55:25;24.87;32.68
65472;DHT22;52068;50.710;14.492;2022-12-18T01:57:55;25.08;32.30
65472;DHT22;52068;50.710;14.492;2022-12-18T02:00:22;25.35;31.91
65472;DHT22;52068;50.710;14.492;2022-12-18T02:02:48;25.59;31.48
65472;DHT22;52068;50.710;14.492;2022-12-18T02:05:19;25.77;31.10
65472;DHT22;52068;50.710;14.492;2022-12-18T02:13:19;25.89;30.78
65472;DHT22;52068;50.710;14.492;2022-12-18T02:18:38;25.92;30.70
65472;DHT22;52068;50.710;14.492;2022-12-18T02:24:35;25.35;31.34
65472;DHT22;52068;50.710;14.492;2022-12-18T02:27:06;25.01;31.74
65472;DHT22;52068;50.710;14.492;2022-12-18T02:29:38;24.70;32.05
65472;DHT22;52068;50.710;14.492;2022-12-18T02:32:07;24.39;32.69
65472;DHT22;52068;50.710;14.492;2022-12-18T02:34:37;24.12;33.19
65472;DHT22;52068;50.710;14.492;2022-12-18T02:37:05;23.89;33.56
65472;DHT22;52068;50.710;14.492;2022-12-18T02:39:33;23.68;33.97
65472;DHT22;52068;50.710;14.492;2022-12-18T02:42:00;23.57;34.04
65472;DHT22;52068;50.710;14.492;2022-12-18T02:44:27;23.64;34.15
65472;DHT22;52068;50.710;14.492;2022-12-18T02:46:53;23.88;33.76
65472;DHT22;52068;50.710;14.492;2022-12-18T02:49:24;24.23;33.19
65472;DHT22;52068;50.710;14.492;2022-12-18T03:00:16;26.34;30.20
65472;DHT22;52068;50.710;14.492;2022-12-18T03:03:06;27.07;29.01
65472;DHT22;52068;50.710;14.492;2022-12-18T03:05:38;27.36;28.63
65472;DHT22;52068;50.710;14.492;2022-12-18T03:08:12;27.60;28.19
65472;DHT22;52068;50.710;14.492;2022-12-18T03:10:56;27.74;28.05
65472;DHT22;52068;50.710;14.492;2022-12-18T03:13:33;27.57;28.24
65472;DHT22;52068;50.710;14.492;2022-12-18T03:16:01;27.32;28.55
65472;DHT22;52068;50.710;14.492;2022-12-18T03:18:35;26.84;28.97
65472;DHT22;52068;50.710;14.492;2022-12-18T03:21:05;26.45;29.43
65472;DHT22;52068;50.710;14.492;2022-12-18T03:23:35;26.21;29.67
65472;DHT22;52068;50.710;14.492;2022-12-18T03:26:06;25.83;29.99
65472;DHT22;52068;50.710;14.492;2022-12-18T03:28:35;25.49;30.48
65472;DHT22;52068;50.710;14.492;2022-12-18T03:31:05;25.16;31.02
65472;DHT22;52068;50.710;14.492;2022-12-18T03:33:51;24.81;31.64
65472;DHT22;52068;50.710;14.492;2022-12-18T03:36:18;24.53;32.17
65472;DHT22;52068;50.710;14.492;2022-12-18T03:38:43;24.27;32.28
65472;DHT22;52068;50.710;14.492;2022-12-18T03:44:20;24.16;32.66
65472;DHT22;52068;50.710;14.492;2022-12-18T03:49:26;24.85;32.16
65472;DHT22;52068;50.710;14.492;2022-12-18T03:52:05;25.43;31.22
65472;DHT22;52068;50.710;14.492;2022-12-18T03:54:32;26.06;30.50
65472;DHT22;52068;50.710;14.492;2022-12-18T03:57:09;26.79;29.37
65472;DHT22;52068;50.710;14.492;2022-12-18T03:59:37;27.49;28.49
65472;DHT22;52068;50.710;14.492;2022-12-18T04:02:04;28.07;27.57
65472;DHT22;52068;50.710;14.492;2022-12-18T04:04:33;28.51;26.98
65472;DHT22;52068;50.710;14.492;2022-12-18T04:06:59;28.77;26.63
65472;DHT22;52068;50.710;14.492;2022-12-18T04:09:25;28.77;26.57
65472;DHT22;52068;50.710;14.492;2022-12-18T04:11:51;28.63;26.73
65472;DHT22;52068;50.710;14.492;2022-12-18T04:14:17;28.36;27.07
65472;DHT22;52068;50.710;14.492;2022-12-18T04:16:42;28.00;27.42
65472;DHT22;52068;50.710;14.492;2022-12-18T04:19:08;27.42;28.25
65472;DHT22;52068;50.710;14.492;2022-12-18T04:21:33;26.91;28.68
65472;DHT22;52068;50.710;14.492;2022-12-18T04:23:58;26.51;29.30
65472;DHT22;52068;50.710;14.492;2022-12-18T04:26:24;26.17;29.66
65472;DHT22;52068;50.710;14.492;2022-12-18T04:28:49;25.83;30.20
65472;DHT22;52068;50.710;14.492;2022-12-18T04:31:15;25.49;30.41
65472;DHT22;52068;50.710;14.492;2022-12-18T04:33:40;25.18;31.06
65472;DHT22;52068;50.710;14.492;2022-12-18T04:36:06;24.88;31.40
65472;DHT22;52068;50.710;14.492;2022-12-18T04:38:31;24.67;31.90
65472;DHT22;52068;50.710;14.492;2022-12-18T04:40:57;24.54;32.17
65472;DHT22;52068;50.710;14.492;2022-12-18T04:43:22;24.54;32.23
65472;DHT22;52068;50.710;14.492;2022-12-18T04:45:48;24.73;32.01
65472;DHT22;52068;50.710;14.492;2022-12-18T04:48:13;24.91;31.83
65472;DHT22;52068;50.710;14.492;2022-12-18T04:50:39;25.12;31.62
65472;DHT22;52068;50.710;14.492;2022-12-18T04:53:04;25.36;31.22
65472;DHT22;52068;50.710;14.492;2022-12-18T04:55:30;25.73;30.85
65472;DHT22;52068;50.710;14.492;2022-12-18T04:57:55;26.30;30.06
65472;DHT22;52068;50.710;14.492;2022-12-18T05:00:21;26.82;29.26
65472;DHT22;52068;50.710;14.492;2022-12-18T05:02:47;27.32;28.60
65472;DHT22;52068;50.710;14.492;2022-12-18T05:05:12;27.61;28.16
65472;DHT22;52068;50.710;14.492;2022-12-18T05:07:38;27.87;27.23
65472;DHT22;52068;50.710;14.492;2022-12-18T05:10:06;27.42;22.43
65472;DHT22;52068;50.710;14.492;2022-12-18T05:12:32;27.16;25.36
65472;DHT22;52068;50.710;14.492;2022-12-18T05:14:57;27.67;25.98
65472;DHT22;52068;50.710;14.492;2022-12-18T05:17:23;28.70;25.18
65472;DHT22;52068;50.710;14.492;2022-12-18T05:19:48;29.92;24.07
65472;DHT22;52068;50.710;14.492;2022-12-18T05:22:14;31.01;22.97
65472;DHT22;52068;50.710;14.492;2022-12-18T05:24:39;32.05;21.92
65472;DHT22;52068;50.710;14.492;2022-12-18T05:27:04;32.88;21.20
65472;DHT22;52068;50.710;14.492;2022-12-18T05:29:30;33.52;20.64
65472;DHT22;52068;50.710;14.492;2022-12-18T05:31:55;33.98;20.26
65472;DHT22;52068;50.710;14.492;2022-12-18T05:34:20;34.14;20.11
65472;DHT22;52068;50.710;14.492;2022-12-18T05:36:46;34.11;20.15
65472;DHT22;52068;50.710;14.492;2022-12-18T05:39:11;33.86;20.42
65472;DHT22;52068;50.710;14.492;2022-12-18T05:41:37;33.35;20.91
65472;DHT22;52068;50.710;14.492;2022-12-18T05:44:02;32.84;21.43
65472;DHT22;52068;50.710;14.492;2022-12-18T05:46:28;32.17;22.32
65472;DHT22;52068;50.710;14.492;2022-12-18T05:48:54;31.50;23.08
65472;DHT22;52068;50.710;14.492;2022-12-18T05:51:21;30.88;23.85
65472;DHT22;52068;50.710;14.492;2022-12-18T05:53:47;30.23;24.54
65472;DHT22;52068;50.710;14.492;2022-12-18T05:56:18;29.62;25.27
65472;DHT22;52068;50.710;14.492;2022-12-18T05:58:44;29.02;26.01
65472;DHT22;52068;50.710;14.492;2022-12-18T06:01:23;28.42;26.80
65472;DHT22;52068;50.710;14.492;2022-12-18T06:03:49;27.94;27.45
65472;DHT22;52068;50.710;14.492;2022-12-18T06:06:20;27.43;28.18
65472;DHT22;52068;50.710;14.492;2022-12-18T06:08:46;26.86;28.94
65472;DHT22;52068;50.710;14.492;2022-12-18T06:11:12;26.38;29.59
65472;DHT22;52068;50.710;14.492;2022-12-18T06:13:38;25.90;30.23
65472;DHT22;52068;50.710;14.492;2022-12-18T06:16:07;25.50;30.86
65472;DHT22;52068;50.710;14.492;2022-12-18T06:18:33;25.28;31.24
65472;DHT22;52068;50.710;14.492;2022-12-18T06:20:59;25.34;31.23
65472;DHT22;52068;50.710;14.492;2022-12-18T06:23:26;25.69;30.92
65472;DHT22;52068;50.710;14.492;2022-12-18T06:25:52;26.43;29.98
65472;DHT22;52068;50.710;14.492;2022-12-18T06:28:18;27.35;26.24
65472;DHT22;52068;50.710;14.492;2022-12-18T06:30:45;28.08;26.69
65472;DHT22;52068;50.710;14.492;2022-12-18T06:33:10;28.86;26.07
65472;DHT22;52068;50.710;14.492;2022-12-18T06:35:35;29.51;25.27
65472;DHT22;52068;50.710;14.492;2022-12-18T06:38:02;29.92;24.65
65472;DHT22;52068;50.710;14.492;2022-12-18T06:40:27;30.15;24.36
65472;DHT22;52068;50.710;14.492;2022-12-18T06:42:53;29.84;21.45
65472;DHT22;52068;50.710;14.492;2022-12-18T06:45:18;29.69;23.89
65472;DHT22;52068;50.710;14.492;2022-12-18T06:47:43;29.53;24.40
65472;DHT22;52068;50.710;14.492;2022-12-18T06:50:09;29.18;24.82
65472;DHT22;52068;50.710;14.492;2022-12-18T06:52:34;28.77;25.32
65472;DHT22;52068;50.710;14.492;2022-12-18T06:55:00;28.32;26.01
65472;DHT22;52068;50.710;14.492;2022-12-18T06:57:25;27.87;26.53
65472;DHT22;52068;50.710;14.492;2022-12-18T06:59:51;27.32;27.22
65472;DHT22;52068;50.710;14.492;2022-12-18T07:02:16;26.85;27.86
65472;DHT22;52068;50.710;14.492;2022-12-18T07:04:42;26.47;28.47
65472;DHT22;52068;50.710;14.492;2022-12-18T07:07:07;26.16;28.72
65472;DHT22;52068;50.710;14.492;2022-12-18T07:09:33;25.87;28.98
65472;DHT22;52068;50.710;14.492;2022-12-18T07:11:58;25.58;29.45
65472;DHT22;52068;50.710;14.492;2022-12-18T07:14:24;25.29;30.06
65472;DHT22;52068;50.710;14.492;2022-12-18T07:16:49;24.94;30.99
65472;DHT22;52068;50.710;14.492;2022-12-18T07:19:14;24.67;31.28
65472;DHT22;52068;50.710;14.492;2022-12-18T07:21:40;24.43;31.59
65472;DHT22;52068;50.710;14.492;2022-12-18T07:24:05;24.23;31.88
65472;DHT22;52068;50.710;14.492;2022-12-18T07:26:31;24.08;30.69
65472;DHT22;52068;50.710;14.492;2022-12-18T07:28:57;23.88;28.38
65472;DHT22;52068;50.710;14.492;2022-12-18T07:31:23;23.85;28.42
65472;DHT22;52068;50.710;14.492;2022-12-18T07:33:49;24.23;27.31
65472;DHT22;52068;50.710;14.492;2022-12-18T07:36:15;25.12;25.57
65472;DHT22;52068;50.710;14.492;2022-12-18T07:38:41;26.31;25.44
65472;DHT22;52068;50.710;14.492;2022-12-18T07:41:11;27.78;24.76
65472;DHT22;52068;50.710;14.492;2022-12-18T07:43:38;29.28;23.22
65472;DHT22;52068;50.710;14.492;2022-12-18T07:46:04;30.54;21.02
65472;DHT22;52068;50.710;14.492;2022-12-18T07:48:30;31.48;19.90
65472;DHT22;52068;50.710;14.492;2022-12-18T07:51:03;32.40;18.79
65472;DHT22;52068;50.710;14.492;2022-12-18T07:53:30;32.98;17.99
65472;DHT22;52068;50.710;14.492;2022-12-18T07:56:00;33.41;17.41
65472;DHT22;52068;50.710;14.492;2022-12-18T07:58:25;33.62;17.10
65472;DHT22;52068;50.710;14.492;2022-12-18T08:00:51;33.53;17.03
65472;DHT22;52068;50.710;14.492;2022-12-18T08:03:18;33.30;17.55
65472;DHT22;52068;50.710;14.492;2022-12-18T08:05:43;32.85;18.69
65472;DHT22;52068;50.710;14.492;2022-12-18T08:08:08;32.31;19.52
65472;DHT22;52068;50.710;14.492;2022-12-18T08:10:34;31.85;20.17
65472;DHT22;52068;50.710;14.492;2022-12-18T08:12:59;31.24;20.75
65472;DHT22;52068;50.710;14.492;2022-12-18T08:15:24;30.54;21.59
65472;DHT22;52068;50.710;14.492;2022-12-18T08:17:50;29.92;22.21
65472;DHT22;52068;50.710;14.492;2022-12-18T08:20:15;29.31;22.77
65472;DHT22;52068;50.710;14.492;2022-12-18T08:22:42;28.73;23.47
65472;DHT22;52068;50.710;14.492;2022-12-18T08:25:08;28.18;24.21
65472;DHT22;52068;50.710;14.492;2022-12-18T08:27:33;27.50;25.03
65472;DHT22;52068;50.710;14.492;2022-12-18T08:29:58;27.06;25.60
65472;DHT22;52068;50.710;14.492;2022-12-18T08:32:26;26.72;26.14
65472;DHT22;52068;50.710;14.492;2022-12-18T08:34:52;26.45;26.57
65472;DHT22;52068;50.710;14.492;2022-12-18T08:37:17;26.28;27.13
65472;DHT22;52068;50.710;14.492;2022-12-18T08:39:42;26.38;26.99
65472;DHT22;52068;50.710;14.492;2022-12-18T08:42:08;26.82;26.41
65472;DHT22;52068;50.710;14.492;2022-12-18T08:44:52;27.51;25.78
65472;DHT22;52068;50.710;14.492;2022-12-18T08:47:17;28.25;24.94
65472;DHT22;52068;50.710;14.492;2022-12-18T08:49:43;29.00;24.15
65472;DHT22;52068;50.710;14.492;2022-12-18T08:52:08;29.66;23.40
65472;DHT22;52068;50.710;14.492;2022-12-18T08:54:34;30.20;22.86
65472;DHT22;52068;50.710;14.492;2022-12-18T08:56:59;30.54;22.46
65472;DHT22;52068;50.710;14.492;2022-12-18T08:59:27;30.67;22.40
65472;DHT22;52068;50.710;14.492;2022-12-18T09:01:53;30.63;22.42
65472;DHT22;52068;50.710;14.492;2022-12-18T09:04:19;30.41;22.57
65472;DHT22;52068;50.710;14.492;2022-12-18T09:06:44;30.04;23.07
65472;DHT22;52068;50.710;14.492;2022-12-18T09:09:10;29.64;23.60
65472;DHT22;52068;50.710;14.492;2022-12-18T09:11:36;29.00;24.21
65472;DHT22;52068;50.710;14.492;2022-12-18T09:14:02;28.41;24.86
65472;DHT22;52068;50.710;14.492;2022-12-18T09:16:29;27.87;25.50
65472;DHT22;52068;50.710;14.492;2022-12-18T09:18:55;27.51;26.03
65472;DHT22;52068;50.710;14.492;2022-12-18T09:21:26;27.02;26.65
65472;DHT22;52068;50.710;14.492;2022-12-18T09:23:53;26.62;27.22
65472;DHT22;52068;50.710;14.492;2022-12-18T09:26:19;26.30;27.50
65472;DHT22;52068;50.710;14.492;2022-12-18T09:28:45;25.96;28.03
65472;DHT22;52068;50.710;14.492;2022-12-18T09:31:11;25.63;27.39
65472;DHT22;52068;50.710;14.492;2022-12-18T09:33:40;25.21;27.03
65472;DHT22;52068;50.710;14.492;2022-12-18T09:36:08;25.03;28.41
65472;DHT22;52068;50.710;14.492;2022-12-18T09:38:35;25.01;28.79
65472;DHT22;52068;50.710;14.492;2022-12-18T09:41:05;25.22;28.68
65472;DHT22;52068;50.710;14.492;2022-12-18T09:43:46;25.65;28.32
65472;DHT22;52068;50.710;14.492;2022-12-18T09:46:18;26.07;27.88
65472;DHT22;52068;50.710;14.492;2022-12-18T09:48:48;26.44;27.43
65472;DHT22;52068;50.710;14.492;2022-12-18T09:51:26;26.78;26.95
65472;DHT22;52068;50.710;14.492;2022-12-18T09:54:04;27.15;26.52
65472;DHT22;52068;50.710;14.492;2022-12-18T09:56:35;27.49;26.24
65472;DHT22;52068;50.710;14.492;2022-12-18T09:59:04;27.74;25.84
65472;DHT22;52068;50.710;14.492;2022-12-18T10:01:31;27.87;25.64
65472;DHT22;52068;50.710;14.492;2022-12-18T10:03:57;28.04;25.48
65472;DHT22;52068;50.710;14.492;2022-12-18T10:06:31;28.04;25.35
65472;DHT22;52068;50.710;14.492;2022-12-18T10:09:29;27.98;25.48
65472;DHT22;52068;50.710;14.492;2022-12-18T10:14:58;27.56;25.98
65472;DHT22;52068;50.710;14.492;2022-12-18T10:22:37;27.16;26.45
65472;DHT22;52068;50.710;14.492;2022-12-18T10:25:21;27.02;26.65
65472;DHT22;52068;50.710;14.492;2022-12-18T10:27:48;26.85;26.90
65472;DHT22;52068;50.710;14.492;2022-12-18T10:30:19;26.64;27.13
65472;DHT22;52068;50.710;14.492;2022-12-18T10:32:44;26.48;27.39
65472;DHT22;52068;50.710;14.492;2022-12-18T10:35:26;26.33;27.72
65472;DHT22;52068;50.710;14.492;2022-12-18T10:43:15;26.04;28.06
65472;DHT22;52068;50.710;14.492;2022-12-18T10:45:41;25.96;28.21
65472;DHT22;52068;50.710;14.492;2022-12-18T10:48:20;25.86;28.37
65472;DHT22;52068;50.710;14.492;2022-12-18T10:50:49;25.82;28.42
65472;DHT22;52068;50.710;14.492;2022-12-18T10:53:20;25.76;28.42
65472;DHT22;52068;50.710;14.492;2022-12-18T10:55:46;25.69;28.64
65472;DHT22;52068;50.710;14.492;2022-12-18T10:58:29;25.62;28.76
65472;DHT22;52068;50.710;14.492;2022-12-18T11:01:07;25.45;28.99
65472;DHT22;52068;50.710;14.492;2022-12-18T11:03:44;25.32;29.22
65472;DHT22;52068;50.710;14.492;2022-12-18T11:08:36;25.08;29.40
65472;DHT22;52068;50.710;14.492;2022-12-18T11:11:01;24.99;29.35
65472;DHT22;52068;50.710;14.492;2022-12-18T11:13:29;24.95;29.16
65472;DHT22;52068;50.710;14.492;2022-12-18T11:15:55;24.80;29.76
65472;DHT22;52068;50.710;14.492;2022-12-18T11:18:33;24.70;30.24
65472;DHT22;52068;50.710;14.492;2022-12-18T11:21:06;24.54;30.37
65472;DHT22;52068;50.710;14.492;2022-12-18T11:23:32;24.36;30.62
65472;DHT22;52068;50.710;14.492;2022-12-18T11:26:00;24.19;30.79
65472;DHT22;52068;50.710;14.492;2022-12-18T11:28:43;24.10;30.92
65472;DHT22;52068;50.710;14.492;2022-12-18T11:31:11;23.99;30.93
65472;DHT22;52068;50.710;14.492;2022-12-18T11:33:40;23.96;30.88
65472;DHT22;52068;50.710;14.492;2022-12-18T11:36:09;24.08;30.93
65472;DHT22;52068;50.710;14.492;2022-12-18T11:38:37;24.27;30.61
65472;DHT22;52068;50.710;14.492;2022-12-18T11:41:13;24.56;30.41
65472;DHT22;52068;50.710;14.492;2022-12-18T11:46:19;25.12;29.75
65472;DHT22;52068;50.710;14.492;2022-12-18T11:49:13;25.41;29.29
65472;DHT22;52068;50.710;14.492;2022-12-18T11:51:52;25.55;29.00
65472;DHT22;52068;50.710;14.492;2022-12-18T11:54:19;25.58;29.06
65472;DHT22;52068;50.710;14.492;2022-12-18T11:56:58;25.63;29.17
65472;DHT22;52068;50.710;14.492;2022-12-18T11:59:39;25.43;29.32
65472;DHT22;52068;50.710;14.492;2022-12-18T12:16:14;24.17;30.99
65472;DHT22;52068;50.710;14.492;2022-12-18T12:21:28;23.69;32.21
65472;DHT22;52068;50.710;14.492;2022-12-18T12:26:50;24.41;31.32
65472;DHT22;52068;50.710;14.492;2022-12-18T12:29:42;25.18;30.25
65472;DHT22;52068;50.710;14.492;2022-12-18T12:32:16;25.96;29.00
65472;DHT22;52068;50.710;14.492;2022-12-18T12:40:14;28.41;25.81
65472;DHT22;52068;50.710;14.492;2022-12-18T12:42:52;28.90;25.14
65472;DHT22;52068;50.710;14.492;2022-12-18T12:48:32;29.69;24.18
65472;DHT22;52068;50.710;14.492;2022-12-18T12:51:00;29.82;24.03
65472;DHT22;52068;50.710;14.492;2022-12-18T12:53:31;29.85;23.94
65472;DHT22;52068;50.710;14.492;2022-12-18T12:55:58;29.76;24.15
65472;DHT22;52068;50.710;14.492;2022-12-18T13:09:04;27.71;26.31
65472;DHT22;52068;50.710;14.492;2022-12-18T13:11:34;27.27;26.81
65472;DHT22;52068;50.710;14.492;2022-12-18T13:14:34;26.82;27.49
65472;DHT22;52068;50.710;14.492;2022-12-18T13:19:44;26.03;28.42
65472;DHT22;52068;50.710;14.492;2022-12-18T13:22:24;25.72;28.72
65472;DHT22;52068;50.710;14.492;2022-12-18T13:24:50;25.38;29.14
65472;DHT22;52068;50.710;14.492;2022-12-18T13:36:11;24.50;30.77
65472;DHT22;52068;50.710;14.492;2022-12-18T13:38:38;24.67;30.50
65472;DHT22;52068;50.710;14.492;2022-12-18T13:41:23;25.05;30.08
65472;DHT22;52068;50.710;14.492;2022-12-18T13:43:50;25.42;29.61
65472;DHT22;52068;50.710;14.492;2022-12-18T13:51:23;26.79;27.78
65472;DHT22;52068;50.710;14.492;2022-12-18T13:53:59;27.20;27.21
65472;DHT22;52068;50.710;14.492;2022-12-18T13:56:27;27.46;26.87
65472;DHT22;52068;50.710;14.492;2022-12-18T13:59:36;27.78;26.37
65472;DHT22;52068;50.710;14.492;2022-12-18T14:02:16;28.09;26.07
65472;DHT22;52068;50.710;14.492;2022-12-18T14:04:45;28.36;25.67
65472;DHT22;52068;50.710;14.492;2022-12-18T14:07:13;28.46;25.60
65472;DHT22;52068;50.710;14.492;2022-12-18T14:09:42;28.53;25.32
65472;DHT22;52068;50.710;14.492;2022-12-18T14:12:26;28.52;25.44
65472;DHT22;52068;50.710;14.492;2022-12-18T14:17:59;28.38;25.64
65472;DHT22;52068;50.710;14.492;2022-12-18T14:20:28;28.08;25.93
65472;DHT22;52068;50.710;14.492;2022-12-18T14:22:55;27.84;26.25
65472;DHT22;52068;50.710;14.492;2022-12-18T14:25:26;27.63;26.55
65472;DHT22;52068;50.710;14.492;2022-12-18T14:28:02;27.37;26.90
65472;DHT22;52068;50.710;14.492;2022-12-18T14:30:31;27.03;27.36
65472;DHT22;52068;50.710;14.492;2022-12-18T14:33:04;26.76;27.76
65472;DHT22;52068;50.710;14.492;2022-12-18T14:35:32;26.44;28.24
65472;DHT22;52068;50.710;14.492;2022-12-18T14:40:36;25.79;29.18
65472;DHT22;52068;50.710;14.492;2022-12-18T14:43:02;25.46;29.40
65472;DHT22;52068;50.710;14.492;2022-12-18T14:45:37;25.15;29.98
65472;DHT22;52068;50.710;14.492;2022-12-18T14:48:09;24.91;30.24
65472;DHT22;52068;50.710;14.492;2022-12-18T14:50:34;24.67;30.95
65472;DHT22;52068;50.710;14.492;2022-12-18T14:53:00;24.53;31.08
65472;DHT22;52068;50.710;14.492;2022-12-18T14:55:25;24.59;31.12
65472;DHT22;52068;50.710;14.492;2022-12-18T14:57:55;24.92;30.75
65472;DHT22;52068;50.710;14.492;2022-12-18T15:00:23;25.34;30.18
65472;DHT22;52068;50.710;14.492;2022-12-18T15:02:54;26.10;29.14
65472;DHT22;52068;50.710;14.492;2022-12-18T15:05:28;26.71;28.29
65472;DHT22;52068;50.710;14.492;2022-12-18T15:07:55;27.33;27.47
65472;DHT22;52068;50.710;14.492;2022-12-18T15:12:49;28.41;26.10
65472;DHT22;52068;50.710;14.492;2022-12-18T15:20:46;29.41;25.04
65472;DHT22;52068;50.710;14.492;2022-12-18T15:23:23;29.54;24.75
65472;DHT22;52068;50.710;14.492;2022-12-18T15:25:58;29.62;24.61
65472;DHT22;52068;50.710;14.492;2022-12-18T15:28:34;29.53;24.71
65472;DHT22;52068;50.710;14.492;2022-12-18T15:31:33;29.24;25.12
65472;DHT22;52068;50.710;14.492;2022-12-18T15:34:12;28.93;25.56
65472;DHT22;52068;50.710;14.492;2022-12-18T15:36:38;28.49;25.95
65472;DHT22;52068;50.710;14.492;2022-12-18T15:39:04;28.16;26.41
65472;DHT22;52068;50.710;14.492;2022-12-18T15:41:32;27.90;26.85
65472;DHT22;52068;50.710;14.492;2022-12-18T15:43:58;27.47;27.45
65472;DHT22;52068;50.710;14.492;2022-12-18T15:46:25;27.06;28.03
65472;DHT22;52068;50.710;14.492;2022-12-18T15:48:55;26.71;28.46
65472;DHT22;52068;50.710;14.492;2022-12-18T15:51:26;26.35;28.95
65472;DHT22;52068;50.710;14.492;2022-12-18T15:53:54;26.03;29.32
65472;DHT22;52068;50.710;14.492;2022-12-18T15:56:20;25.67;29.74
65472;DHT22;52068;50.710;14.492;2022-12-18T15:59:12;25.32;30.30
65472;DHT22;52068;50.710;14.492;2022-12-18T16:01:38;25.07;30.60
65472;DHT22;52068;50.710;14.492;2022-12-18T16:04:03;24.85;30.63
65472;DHT22;52068;50.710;14.492;2022-12-18T16:06:29;24.67;30.98
65472;DHT22;52068;50.710;14.492;2022-12-18T16:08:54;24.49;31.16
65472;DHT22;52068;50.710;14.492;2022-12-18T16:11:21;24.23;31.71
65472;DHT22;52068;50.710;14.492;2022-12-18T16:14:24;23.96;32.06
65472;DHT22;52068;50.710;14.492;2022-12-18T16:16:51;23.71;32.11
65472;DHT22;52068;50.710;14.492;2022-12-18T16:19:17;23.57;32.13
65472;DHT22;52068;50.710;14.492;2022-12-18T16:21:43;23.47;32.26
65472;DHT22;52068;50.710;14.492;2022-12-18T16:24:17;23.35;32.62
65472;DHT22;52068;50.710;14.492;2022-12-18T16:26:43;23.31;33.30
65472;DHT22;52068;50.710;14.492;2022-12-18T16:29:09;23.38;33.28
65472;DHT22;52068;50.710;14.492;2022-12-18T16:31:35;23.57;32.86
65472;DHT22;52068;50.710;14.492;2022-12-18T16:34:30;23.98;32.12
65472;DHT22;52068;50.710;14.492;2022-12-18T16:37:01;24.52;31.28
65472;DHT22;52068;50.710;14.492;2022-12-18T16:39:27;25.05;30.56
65472;DHT22;52068;50.710;14.492;2022-12-18T16:41:53;25.52;29.82
65472;DHT22;52068;50.710;14.492;2022-12-18T16:44:18;26.00;29.15
65472;DHT22;52068;50.710;14.492;2022-12-18T16:46:44;26.40;28.51
65472;DHT22;52068;50.710;14.492;2022-12-18T16:49:13;26.61;28.23
65472;DHT22;52068;50.710;14.492;2022-12-18T16:51:38;26.88;27.91
65472;DHT22;52068;50.710;14.492;2022-12-18T16:54:04;27.02;27.61
65472;DHT22;52068;50.710;14.492;2022-12-18T16:56:31;27.03;27.63
65472;DHT22;52068;50.710;14.492;2022-12-18T16:58:58;26.99;27.63
65472;DHT22;52068;50.710;14.492;2022-12-18T17:01:25;26.82;27.90
65472;DHT22;52068;50.710;14.492;2022-12-18T17:03:55;26.67;28.09
65472;DHT22;52068;50.710;14.492;2022-12-18T17:06:21;26.48;28.26
65472;DHT22;52068;50.710;14.492;2022-12-18T17:08:47;26.25;28.59
65472;DHT22;52068;50.710;14.492;2022-12-18T17:11:13;26.01;28.90
65472;DHT22;52068;50.710;14.492;2022-12-18T17:13:38;25.80;29.24
65472;DHT22;52068;50.710;14.492;2022-12-18T17:16:05;25.56;29.50
65472;DHT22;52068;50.710;14.492;2022-12-18T17:18:31;25.31;29.82
65472;DHT22;52068;50.710;14.492;2022-12-18T17:21:00;25.05;30.23
65472;DHT22;52068;50.710;14.492;2022-12-18T17:23:27;24.80;30.52